Time;durP1;ratioP1;P1;durP2;ratioP2;P2;SDS_P1;SDS_P2;PMS_P1;PMS_P2;Temp;Humidity;BMP_temperature;BMP_pressure;BME280_temperature;BME280_humidity;BME280_pressure;Samples;Min_cycle;Max_cycle;Signal;HPM_P1;HPM_P2
2023/08/22 00:01:58;;;;;;;6.30;3.28;;;17.70;99.90;;;;;;5031617;28;20257;-59
2023/08/22 00:04:24;;;;;;;6.97;3.65;;;17.80;99.90;;;;;;5032482;28;20653;-60
2023/08/22 00:06:50;;;;;;;7.15;3.70;;;17.70;99.90;;;;;;5031890;28;20387;-60
2023/08/22 00:09:16;;;;;;;9.10;5.18;;;17.70;99.90;;;;;;5030436;28;20078;-60
2023/08/22 00:11:42;;;;;;;8.65;3.88;;;17.70;99.90;;;;;;5030592;28;20049;-60
2023/08/22 00:14:08;;;;;;;8.77;3.88;;;17.70;99.90;;;;;;5031396;28;20482;-61
2023/08/22 00:16:34;;;;;;;7.35;3.30;;;17.60;99.90;;;;;;5031702;28;20026;-60
2023/08/22 00:18:59;;;;;;;7.50;3.40;;;17.70;99.90;;;;;;5031877;28;20128;-60
2023/08/22 00:21:25;;;;;;;10.20;3.10;;;17.60;99.90;;;;;;5031460;28;20018;-58
2023/08/22 00:23:51;;;;;;;7.40;3.20;;;17.70;99.90;;;;;;5031459;28;20037;-60
2023/08/22 00:26:16;;;;;;;9.38;3.45;;;17.60;99.90;;;;;;5031535;28;20115;-60
2023/08/22 00:28:42;;;;;;;7.03;3.42;;;17.60;99.90;;;;;;5031207;28;20040;-59
2023/08/22 00:31:08;;;;;;;7.15;3.60;;;17.60;99.90;;;;;;5031045;28;20025;-55
2023/08/22 00:33:33;;;;;;;7.70;3.20;;;17.50;99.90;;;;;;5013215;28;20033;-58
2023/08/22 00:35:59;;;;;;;6.32;3.25;;;17.50;99.90;;;;;;5013414;28;20139;-60
2023/08/22 00:38:25;;;;;;;8.60;3.63;;;17.50;99.90;;;;;;5030943;28;20552;-59
2023/08/22 00:40:51;;;;;;;6.82;3.17;;;17.50;99.90;;;;;;5013525;28;20075;-58
2023/08/22 00:43:17;;;;;;;6.35;3.83;;;17.50;99.90;;;;;;4996842;28;20450;-59
2023/08/22 00:45:43;;;;;;;10.35;3.90;;;17.50;99.90;;;;;;5013465;28;20061;-58
2023/08/22 00:48:09;;;;;;;9.30;3.78;;;17.50;99.90;;;;;;5013065;28;20482;-59
2023/08/22 00:50:35;;;;;;;7.22;3.40;;;17.50;99.90;;;;;;5013375;28;20037;-59
2023/08/22 00:53:01;;;;;;;11.23;3.47;;;17.50;99.90;;;;;;5013235;28;20026;-59
2023/08/22 00:55:27;;;;;;;5.85;3.20;;;17.50;99.90;;;;;;5013381;28;20379;-60
2023/08/22 00:57:53;;;;;;;7.35;3.42;;;17.50;99.90;;;;;;5030963;28;20551;-60
2023/08/22 01:00:18;;;;;;;12.95;4.00;;;17.50;99.90;;;;;;5013403;28;20037;-59
2023/08/22 01:02:44;;;;;;;6.10;3.45;;;17.50;99.90;;;;;;5013105;28;20029;-60
2023/08/22 01:05:10;;;;;;;8.30;3.53;;;17.40;99.90;;;;;;5031080;28;20033;-60
2023/08/22 01:08:00;;;;;;;7.60;3.33;;;17.40;99.90;;;;;;5030497;28;20030;-60
2023/08/22 01:10:33;;;;;;;7.18;4.00;;;17.40;99.90;;;;;;5012789;28;20504;-59
2023/08/22 01:13:12;;;;;;;8.13;3.72;;;17.40;99.90;;;;;;5012915;28;20025;-59
2023/08/22 01:15:40;;;;;;;7.97;3.45;;;17.30;99.90;;;;;;5013071;28;20034;-57
2023/08/22 01:18:07;;;;;;;6.57;3.50;;;17.30;99.90;;;;;;5012752;28;20043;-59
2023/08/22 01:20:34;;;;;;;11.20;3.80;;;17.20;99.90;;;;;;5012754;28;20067;-58
2023/08/22 01:23:00;;;;;;;7.55;3.42;;;17.20;99.90;;;;;;5030365;28;20035;-60
2023/08/22 01:25:27;;;;;;;11.45;4.10;;;17.10;99.90;;;;;;5012712;28;20033;-59
2023/08/22 01:28:14;;;;;;;9.13;4.00;;;17.10;99.90;;;;;;5030391;28;20029;-59
2023/08/22 01:30:58;;;;;;;7.47;3.50;;;17.10;99.90;;;;;;5030490;28;20389;-59
2023/08/22 01:33:33;;;;;;;9.70;3.65;;;17.10;99.90;;;;;;5012454;28;20071;-60
2023/08/22 01:35:59;;;;;;;7.80;3.75;;;17.10;99.90;;;;;;5012635;28;20026;-59
2023/08/22 01:38:29;;;;;;;9.52;3.72;;;17.20;99.90;;;;;;5012578;28;20140;-59
2023/08/22 01:40:57;;;;;;;7.80;3.38;;;17.10;99.90;;;;;;5012791;28;20029;-60
2023/08/22 01:43:24;;;;;;;7.85;3.70;;;17.10;99.90;;;;;;5032601;28;20035;-60
2023/08/22 01:45:50;;;;;;;7.75;3.80;;;17.20;99.90;;;;;;5034258;28;20029;-60
2023/08/22 01:48:16;;;;;;;9.95;3.40;;;17.20;99.90;;;;;;5033878;28;20103;-60
2023/08/22 01:50:42;;;;;;;7.32;3.70;;;17.20;99.90;;;;;;5034642;28;20022;-59
2023/08/22 01:53:07;;;;;;;8.40;3.60;;;17.20;99.90;;;;;;5016195;28;20044;-59
2023/08/22 01:55:33;;;;;;;7.82;3.55;;;17.20;99.90;;;;;;5016327;28;20026;-59
2023/08/22 01:57:59;;;;;;;7.57;3.75;;;17.20;99.90;;;;;;5016218;28;20111;-59
2023/08/22 02:00:25;;;;;;;6.82;3.47;;;17.20;99.90;;;;;;5016321;28;20033;-59
2023/08/22 02:02:50;;;;;;;9.77;3.90;;;17.10;99.90;;;;;;5033735;28;20034;-58
2023/08/22 02:05:16;;;;;;;7.00;3.65;;;17.20;99.90;;;;;;5015941;28;20052;-59
2023/08/22 02:07:42;;;;;;;10.45;4.85;;;17.20;99.90;;;;;;5033520;28;20026;-59
2023/08/22 02:10:08;;;;;;;9.20;4.03;;;17.20;99.90;;;;;;5016093;28;20175;-59
2023/08/22 02:12:33;;;;;;;9.18;3.53;;;17.20;99.90;;;;;;5015820;28;20037;-59
2023/08/22 02:14:59;;;;;;;6.95;3.78;;;17.10;99.90;;;;;;5015975;28;20032;-59
2023/08/22 02:17:25;;;;;;;6.43;3.15;;;17.10;99.90;;;;;;5033520;28;20029;-59
2023/08/22 02:19:51;;;;;;;9.95;4.30;;;17.20;99.90;;;;;;5033573;28;20359;-57
2023/08/22 02:22:16;;;;;;;7.63;3.50;;;17.20;99.90;;;;;;5015638;28;20030;-58
2023/08/22 02:24:43;;;;;;;8.75;3.97;;;17.20;99.90;;;;;;5033513;28;20022;-59
2023/08/22 02:27:09;;;;;;;9.73;3.83;;;17.20;99.90;;;;;;5015649;28;20032;-57
2023/08/22 02:29:35;;;;;;;8.50;3.92;;;17.20;99.90;;;;;;5033403;28;20051;-59
2023/08/22 02:32:01;;;;;;;11.00;4.22;;;17.20;99.90;;;;;;5033201;28;20099;-59
2023/08/22 02:34:26;;;;;;;7.50;3.70;;;17.20;99.90;;;;;;5033206;28;20021;-56
2023/08/22 02:36:52;;;;;;;6.85;3.53;;;17.20;99.90;;;;;;5015906;28;20029;-58
2023/08/22 02:39:18;;;;;;;8.80;3.78;;;17.30;99.90;;;;;;5033117;28;20037;-60
2023/08/22 02:41:43;;;;;;;6.63;3.60;;;17.30;99.90;;;;;;5015507;28;20068;-60
2023/08/22 02:44:09;;;;;;;9.05;3.75;;;17.20;99.90;;;;;;5033191;28;20301;-60
2023/08/22 02:46:35;;;;;;;7.43;3.80;;;17.20;99.90;;;;;;5015456;28;20112;-59
2023/08/22 02:49:00;;;;;;;7.45;3.65;;;17.20;99.90;;;;;;5015180;28;20394;-59
2023/08/22 02:51:27;;;;;;;8.65;4.00;;;17.10;99.90;;;;;;5015102;28;20506;-59
2023/08/22 02:53:52;;;;;;;6.82;3.25;;;17.10;99.90;;;;;;5032757;28;20036;-60
2023/08/22 02:56:19;;;;;;;5.07;3.42;;;17.10;99.90;;;;;;5015238;28;20038;-60
2023/08/22 02:58:46;;;;;;;6.15;4.03;;;17.00;99.90;;;;;;5032800;28;20083;-60
2023/08/22 03:01:12;;;;;;;6.53;3.70;;;17.00;99.90;;;;;;5015403;28;20036;-59
2023/08/22 03:03:38;;;;;;;7.80;3.75;;;17.00;99.90;;;;;;5014758;28;20042;-60
2023/08/22 03:06:04;;;;;;;9.40;3.75;;;17.00;99.90;;;;;;5032831;28;20029;-59
2023/08/22 03:08:30;;;;;;;9.63;4.35;;;17.00;99.90;;;;;;5014013;28;20037;-60
2023/08/22 03:11:01;;;;;;;7.43;3.90;;;16.90;99.90;;;;;;5013923;28;20512;-60
2023/08/22 03:13:30;;;;;;;7.38;3.53;;;16.90;99.90;;;;;;5013573;28;20025;-60
2023/08/22 03:15:57;;;;;;;5.90;3.58;;;16.90;99.90;;;;;;5013712;28;20025;-60
2023/08/22 03:18:24;;;;;;;6.63;3.55;;;16.90;99.90;;;;;;5031388;28;20036;-60
2023/08/22 03:20:53;;;;;;;9.05;3.42;;;16.90;99.90;;;;;;5013805;28;20079;-60
2023/08/22 03:23:19;;;;;;;6.80;3.25;;;16.80;99.90;;;;;;5013507;28;20048;-60
2023/08/22 03:25:54;;;;;;;7.82;4.00;;;16.80;99.90;;;;;;5032287;28;20406;-59
2023/08/22 03:28:20;;;;;;;9.75;3.92;;;16.80;99.90;;;;;;5014001;28;20466;-59
2023/08/22 03:30:46;;;;;;;9.48;3.40;;;16.80;99.90;;;;;;5013578;28;20482;-59
2023/08/22 03:33:12;;;;;;;6.82;3.88;;;16.70;99.90;;;;;;5013324;28;20030;-60
2023/08/22 03:35:38;;;;;;;8.32;3.65;;;16.70;99.90;;;;;;5013586;28;20025;-60
2023/08/22 03:38:03;;;;;;;6.32;3.63;;;16.70;99.90;;;;;;5013478;28;20506;-58
2023/08/22 03:40:29;;;;;;;7.90;3.90;;;16.70;99.90;;;;;;5013419;28;20076;-60
2023/08/22 03:42:55;;;;;;;7.05;3.72;;;16.60;99.90;;;;;;5013081;28;20029;-59
2023/08/22 03:45:20;;;;;;;6.78;3.53;;;16.60;99.90;;;;;;5013397;28;20395;-60
2023/08/22 03:47:48;;;;;;;7.93;3.70;;;16.60;99.90;;;;;;5013368;28;20029;-60
2023/08/22 03:50:14;;;;;;;6.95;3.75;;;16.60;99.90;;;;;;4997236;28;20033;-60
2023/08/22 03:52:39;;;;;;;8.68;3.92;;;16.50;99.90;;;;;;5013304;28;20037;-60
2023/08/22 03:55:06;;;;;;;8.55;4.30;;;16.50;99.90;;;;;;5013273;28;20029;-60
2023/08/22 03:57:32;;;;;;;9.00;4.60;;;16.50;99.90;;;;;;5012972;28;20036;-60
2023/08/22 03:59:57;;;;;;;12.00;4.13;;;16.50;99.90;;;;;;5013375;28;20045;-58
2023/08/22 04:02:23;;;;;;;7.90;4.43;;;16.50;99.90;;;;;;5031074;28;20080;-60
2023/08/22 04:04:48;;;;;;;7.60;3.85;;;16.50;99.90;;;;;;5013067;28;20064;-59
2023/08/22 04:09:47;;;;;;;7.40;3.92;;;16.50;99.90;;;;;;5089273;28;20536;-58
2023/08/22 04:12:13;;;;;;;8.98;4.47;;;16.50;99.90;;;;;;5086704;28;20035;-59
2023/08/22 04:14:39;;;;;;;9.50;3.92;;;16.50;99.90;;;;;;5087196;28;20032;-59
2023/08/22 04:17:04;;;;;;;8.65;4.35;;;16.50;99.90;;;;;;5087046;28;20472;-60
2023/08/22 04:19:31;;;;;;;7.72;4.18;;;16.50;99.90;;;;;;5088761;28;20032;-59
2023/08/22 04:21:56;;;;;;;8.48;4.72;;;16.50;99.90;;;;;;5086911;28;20033;-60
2023/08/22 04:24:22;;;;;;;8.57;4.68;;;16.50;99.90;;;;;;5088018;28;20098;-60
2023/08/22 04:26:48;;;;;;;9.32;4.47;;;16.50;99.90;;;;;;5075234;28;20047;-60
2023/08/22 04:29:13;;;;;;;10.45;4.50;;;16.50;99.90;;;;;;5077741;28;20461;-60
2023/08/22 04:31:39;;;;;;;7.40;4.25;;;16.50;99.90;;;;;;5079728;28;20028;-59
2023/08/22 04:34:04;;;;;;;10.95;4.65;;;16.50;99.90;;;;;;5078320;28;20032;-59
2023/08/22 04:36:35;;;;;;;9.50;4.50;;;16.60;99.90;;;;;;5073736;28;20020;-59
2023/08/22 04:39:01;;;;;;;10.93;4.63;;;16.60;99.90;;;;;;5066615;28;20039;-60
2023/08/22 04:41:26;;;;;;;8.95;4.65;;;16.60;99.90;;;;;;5084483;28;20534;-60
2023/08/22 04:44:12;;;;;;;8.93;4.88;;;16.60;99.90;;;;;;5080087;28;20052;-58
2023/08/22 04:46:38;;;;;;;7.60;4.30;;;16.60;99.90;;;;;;5086341;28;20024;-58
2023/08/22 04:49:05;;;;;;;10.75;5.13;;;16.50;99.90;;;;;;5086444;28;20039;-59
2023/08/22 04:51:30;;;;;;;10.10;4.45;;;16.50;99.90;;;;;;5086334;28;20024;-60
2023/08/22 04:53:56;;;;;;;9.13;5.00;;;16.50;99.90;;;;;;5086264;28;20035;-59
2023/08/22 04:56:22;;;;;;;11.93;5.55;;;16.50;99.90;;;;;;5086242;28;20028;-60
2023/08/22 04:58:47;;;;;;;11.30;5.45;;;16.50;99.90;;;;;;5084460;28;20115;-59
2023/08/22 05:01:13;;;;;;;10.20;5.22;;;16.40;99.90;;;;;;5085677;28;20059;-59
2023/08/22 05:03:39;;;;;;;8.63;5.45;;;16.50;99.90;;;;;;5084619;28;20020;-59
2023/08/22 05:06:05;;;;;;;7.03;4.72;;;16.50;99.90;;;;;;5086019;28;20035;-59
2023/08/22 05:08:31;;;;;;;9.93;4.93;;;16.50;99.90;;;;;;5085451;28;20062;-59
2023/08/22 05:10:57;;;;;;;8.07;5.45;;;16.50;99.90;;;;;;5085886;28;20028;-60
2023/08/22 05:13:22;;;;;;;11.95;4.95;;;16.50;99.90;;;;;;5085589;28;20051;-59
2023/08/22 05:15:48;;;;;;;6.93;4.22;;;16.50;99.90;;;;;;5085612;28;20082;-60
2023/08/22 05:18:14;;;;;;;6.78;4.47;;;16.50;99.90;;;;;;5085466;28;20090;-60
2023/08/22 05:20:40;;;;;;;7.93;4.82;;;16.50;99.90;;;;;;5075155;28;20440;-60
2023/08/22 05:23:06;;;;;;;10.23;4.43;;;16.50;99.90;;;;;;5071798;28;20078;-61
2023/08/22 05:25:32;;;;;;;10.98;5.05;;;16.50;99.90;;;;;;5073392;28;20032;-59
2023/08/22 05:27:58;;;;;;;10.93;5.00;;;16.50;99.90;;;;;;5072009;28;20025;-59
2023/08/22 05:30:23;;;;;;;8.45;4.07;;;16.60;99.90;;;;;;5072030;28;20028;-59
2023/08/22 05:32:49;;;;;;;10.50;4.90;;;16.60;99.90;;;;;;5071568;28;20031;-59
2023/08/22 05:35:15;;;;;;;8.05;4.85;;;16.70;99.90;;;;;;5073078;28;20485;-59
2023/08/22 05:37:41;;;;;;;6.75;4.00;;;16.90;99.90;;;;;;5071526;28;20024;-59
2023/08/22 05:40:08;;;;;;;8.63;4.68;;;17.00;99.90;;;;;;5071705;28;20024;-58
2023/08/22 05:42:36;;;;;;;8.65;4.60;;;17.10;99.90;;;;;;5071521;28;20503;-59
2023/08/22 05:45:04;;;;;;;7.10;3.97;;;17.10;99.90;;;;;;5071700;28;20025;-60
2023/08/22 05:47:30;;;;;;;7.85;4.50;;;17.10;99.90;;;;;;5071265;28;20028;-60
2023/08/22 05:49:55;;;;;;;8.50;4.60;;;17.20;99.90;;;;;;5071576;28;20029;-60
2023/08/22 05:52:25;;;;;;;7.07;3.88;;;17.20;99.90;;;;;;5071365;28;20025;-60
2023/08/22 05:54:52;;;;;;;8.20;4.53;;;17.30;99.90;;;;;;5071396;28;20063;-57
2023/08/22 05:57:17;;;;;;;9.93;5.50;;;17.40;99.90;;;;;;5071376;28;20472;-60
2023/08/22 05:59:43;;;;;;;12.05;5.78;;;17.50;99.90;;;;;;5070069;28;20034;-60
2023/08/22 06:02:08;;;;;;;10.75;5.65;;;17.70;99.90;;;;;;5070830;28;20086;-60
2023/08/22 06:04:34;;;;;;;9.07;5.20;;;18.00;99.90;;;;;;5071195;28;20119;-61
2023/08/22 06:07:00;;;;;;;8.63;4.88;;;18.00;99.90;;;;;;5071191;28;20033;-60
2023/08/22 06:09:27;;;;;;;10.70;5.20;;;18.00;99.90;;;;;;5072432;28;20063;-60
2023/08/22 06:11:53;;;;;;;9.68;4.95;;;18.10;99.90;;;;;;5072338;28;20051;-60
2023/08/22 06:14:18;;;;;;;11.23;5.45;;;18.10;99.90;;;;;;5070979;28;20035;-60
2023/08/22 06:16:44;;;;;;;8.10;4.95;;;18.30;99.90;;;;;;5071055;28;20068;-60
2023/08/22 06:19:10;;;;;;;7.63;4.53;;;18.40;99.90;;;;;;5071035;28;20033;-59
2023/08/22 06:21:35;;;;;;;11.10;5.85;;;18.40;99.90;;;;;;5070739;28;20396;-59
2023/08/22 06:24:02;;;;;;;9.50;5.22;;;18.60;99.90;;;;;;5070859;28;20037;-57
2023/08/22 06:26:27;;;;;;;8.88;5.35;;;18.70;99.90;;;;;;5063415;28;20374;-59
2023/08/22 06:28:53;;;;;;;12.85;5.90;;;18.90;99.90;;;;;;5059483;28;20090;-59
2023/08/22 06:31:19;;;;;;;10.85;5.60;;;19.00;99.90;;;;;;5062592;28;20055;-59
2023/08/22 06:33:44;;;;;;;11.02;6.07;;;19.20;99.90;;;;;;5060542;28;20024;-59
2023/08/22 06:36:10;;;;;;;9.68;4.20;;;19.20;99.90;;;;;;5042312;28;20025;-59
2023/08/22 06:38:36;;;;;;;8.15;4.75;;;19.30;99.90;;;;;;5058717;28;20025;-59
2023/08/22 06:41:05;;;;;;;8.10;5.43;;;19.40;99.90;;;;;;5061588;28;20044;-59
2023/08/22 06:43:32;;;;;;;10.50;5.72;;;19.50;99.90;;;;;;5052825;28;20417;-59
2023/08/22 06:46:00;;;;;;;10.20;5.35;;;19.70;99.90;;;;;;5050674;28;20572;-60
2023/08/22 06:48:27;;;;;;;8.90;4.85;;;19.80;99.90;;;;;;5050362;28;20114;-59
2023/08/22 06:50:54;;;;;;;13.02;5.13;;;19.90;99.90;;;;;;5050199;28;20504;-60
2023/08/22 06:53:20;;;;;;;10.93;5.30;;;20.10;99.90;;;;;;5051620;28;20108;-58
2023/08/22 06:55:46;;;;;;;12.75;5.40;;;20.20;99.90;;;;;;5051731;28;20035;-60
2023/08/22 06:58:12;;;;;;;8.70;4.90;;;20.40;99.90;;;;;;5051810;28;20151;-60
2023/08/22 07:00:37;;;;;;;7.95;4.82;;;20.50;99.90;;;;;;5051515;28;20460;-60
2023/08/22 07:03:03;;;;;;;12.40;5.03;;;20.70;99.90;;;;;;5051213;28;20432;-60
2023/08/22 07:05:29;;;;;;;9.75;4.50;;;20.80;99.90;;;;;;5051396;28;20079;-60
2023/08/22 07:07:55;;;;;;;9.95;4.60;;;20.90;99.90;;;;;;5050665;28;20482;-60
2023/08/22 07:10:20;;;;;;;7.13;3.53;;;21.00;99.90;;;;;;5051334;28;20481;-59
2023/08/22 07:12:46;;;;;;;6.57;3.60;;;21.00;99.90;;;;;;5051031;28;20442;-58
2023/08/22 07:15:12;;;;;;;7.32;3.88;;;21.20;99.90;;;;;;5051247;28;20025;-60
2023/08/22 07:17:37;;;;;;;9.00;3.83;;;21.30;99.90;;;;;;5050929;28;20424;-59
2023/08/22 07:20:03;;;;;;;9.73;3.22;;;21.40;99.90;;;;;;5051097;28;20025;-59
2023/08/22 07:22:29;;;;;;;9.05;4.13;;;21.50;99.90;;;;;;5050828;28;20029;-59
2023/08/22 07:24:55;;;;;;;5.13;3.10;;;21.50;99.90;;;;;;5051520;28;20442;-59
2023/08/22 07:27:22;;;;;;;8.02;4.07;;;21.50;99.90;;;;;;5050880;28;20296;-58
2023/08/22 07:29:48;;;;;;;9.73;3.92;;;21.70;99.90;;;;;;5051001;28;20406;-58
2023/08/22 07:32:13;;;;;;;8.25;3.72;;;21.80;99.90;;;;;;5050741;28;20035;-59
2023/08/22 07:34:39;;;;;;;9.23;3.80;;;22.00;99.90;;;;;;5051023;28;20100;-58
2023/08/22 07:37:04;;;;;;;10.63;4.32;;;22.10;99.90;;;;;;5050701;28;20474;-59
2023/08/22 07:39:30;;;;;;;7.45;3.90;;;22.30;99.90;;;;;;5050884;28;20076;-56
2023/08/22 07:41:56;;;;;;;11.07;6.22;;;22.30;99.90;;;;;;5050697;28;20396;-60
2023/08/22 07:44:23;;;;;;;10.70;4.82;;;22.40;99.90;;;;;;5050429;28;20052;-60
2023/08/22 07:46:50;;;;;;;9.03;3.60;;;22.50;99.90;;;;;;5050762;28;20496;-59
2023/08/22 07:49:16;;;;;;;13.25;4.40;;;22.50;99.90;;;;;;5050516;28;20045;-59
2023/08/22 07:51:41;;;;;;;11.48;6.20;;;22.50;99.90;;;;;;5050917;28;20116;-56
2023/08/22 07:54:07;;;;;;;12.45;5.72;;;22.60;99.90;;;;;;5051022;28;20029;-52
2023/08/22 07:56:34;;;;;;;12.30;5.82;;;22.50;99.90;;;;;;5050681;28;20182;-55
2023/08/22 07:59:00;;;;;;;22.10;9.43;;;22.70;99.90;;;;;;5050394;28;20029;-59
2023/08/22 08:01:25;;;;;;;27.25;10.32;;;22.90;99.90;;;;;;5050276;28;20135;-60
2023/08/22 08:03:51;;;;;;;22.55;8.68;;;23.00;99.90;;;;;;5050453;28;20146;-60
2023/08/22 08:06:17;;;;;;;20.80;8.75;;;23.00;99.90;;;;;;5050527;28;20032;-59
2023/08/22 08:08:42;;;;;;;21.13;8.63;;;23.00;99.90;;;;;;5050187;28;20064;-59
2023/08/22 08:11:08;;;;;;;23.50;8.73;;;23.20;99.90;;;;;;5051030;28;20021;-59
2023/08/22 08:13:33;;;;;;;22.50;8.43;;;23.30;99.90;;;;;;5050201;28;20032;-59
2023/08/22 08:15:59;;;;;;;19.73;8.52;;;23.40;99.90;;;;;;5050362;28;20025;-59
2023/08/22 08:18:24;;;;;;;19.45;7.40;;;23.50;99.90;;;;;;5050357;28;20083;-60
2023/08/22 08:20:51;;;;;;;17.50;7.97;;;23.60;99.90;;;;;;5050296;28;20028;-58
2023/08/22 08:23:17;;;;;;;19.70;8.90;;;23.70;99.90;;;;;;5050288;28;20025;-60
2023/08/22 08:25:43;;;;;;;15.95;7.70;;;23.70;99.90;;;;;;5050573;28;20390;-59
2023/08/22 08:28:09;;;;;;;17.63;8.80;;;23.60;99.90;;;;;;5050376;28;20183;-60
2023/08/22 08:30:34;;;;;;;20.13;8.18;;;23.70;99.90;;;;;;5050541;28;20029;-58
2023/08/22 08:33:03;;;;;;;19.85;6.75;;;23.50;99.90;;;;;;5050322;28;20112;-60
2023/08/22 08:35:29;;;;;;;16.23;7.28;;;23.50;99.90;;;;;;5050698;28;20037;-60
2023/08/22 08:37:57;;;;;;;15.85;6.55;;;23.50;99.90;;;;;;5050333;28;20367;-59
2023/08/22 08:40:22;;;;;;;16.67;5.60;;;23.50;99.90;;;;;;5050388;28;20516;-60
2023/08/22 08:42:49;;;;;;;16.55;5.88;;;23.50;99.90;;;;;;5050136;28;20037;-58
2023/08/22 08:45:16;;;;;;;12.43;5.32;;;23.50;99.90;;;;;;5050148;28;20466;-59
2023/08/22 08:47:42;;;;;;;10.82;5.55;;;23.60;99.90;;;;;;5049964;28;20028;-60
2023/08/22 08:50:09;;;;;;;13.43;5.78;;;23.60;99.90;;;;;;5050160;28;20029;-60
2023/08/22 08:52:35;;;;;;;13.30;5.85;;;23.70;99.90;;;;;;5049898;28;20029;-60
2023/08/22 08:55:06;;;;;;;15.27;5.07;;;23.70;99.90;;;;;;5051175;28;20122;-60
2023/08/22 08:57:32;;;;;;;10.65;5.18;;;23.70;99.90;;;;;;5053661;28;20441;-59
2023/08/22 09:00:01;;;;;;;15.18;6.35;;;23.70;99.90;;;;;;5053829;28;20025;-60
2023/08/22 09:02:27;;;;;;;13.75;6.00;;;23.70;99.90;;;;;;5053563;28;20116;-60
2023/08/22 09:04:53;;;;;;;15.77;5.68;;;23.70;99.90;;;;;;5052430;28;20029;-60
2023/08/22 09:07:19;;;;;;;13.73;5.88;;;23.70;99.90;;;;;;5053501;28;20074;-60
2023/08/22 09:09:44;;;;;;;14.77;6.82;;;23.70;99.90;;;;;;5053562;28;20555;-60
2023/08/22 09:12:11;;;;;;;13.80;5.43;;;23.70;99.90;;;;;;5053331;28;20044;-60
2023/08/22 09:14:43;;;;;;;16.63;6.15;;;23.70;99.90;;;;;;5053430;28;20021;-60
2023/08/22 09:17:09;;;;;;;18.13;7.70;;;23.90;99.90;;;;;;5053246;28;20029;-60
2023/08/22 09:19:34;;;;;;;10.88;5.20;;;24.10;99.90;;;;;;5053403;28;20036;-60
2023/08/22 09:22:03;;;;;;;15.02;5.70;;;24.10;99.90;;;;;;5053175;28;20086;-59
2023/08/22 09:24:30;;;;;;;12.82;6.10;;;24.20;99.90;;;;;;5053261;28;20136;-60
2023/08/22 09:26:56;;;;;;;20.95;8.38;;;24.30;99.90;;;;;;5053270;28;20266;-60
2023/08/22 09:29:30;;;;;;;20.13;9.25;;;24.40;99.90;;;;;;5053052;28;20179;-60
2023/08/22 09:32:03;;;;;;;20.70;8.85;;;24.80;99.90;;;;;;5053523;28;20416;-59
2023/08/22 09:34:29;;;;;;;19.92;7.50;;;24.90;99.90;;;;;;5053104;28;20040;-60
2023/08/22 09:36:55;;;;;;;11.10;5.85;;;24.90;99.90;;;;;;5053102;28;20038;-59
2023/08/22 09:39:24;;;;;;;18.20;8.38;;;25.10;99.90;;;;;;5052811;28;20040;-60
2023/08/22 09:41:53;;;;;;;13.77;6.43;;;25.10;99.90;;;;;;5052908;28;20276;-60
2023/08/22 09:44:20;;;;;;;;;;;25.00;99.90;;;;;;5053684;28;20044;-60
2023/08/22 09:46:48;;;;;;;8.57;3.83;;;25.10;99.90;;;;;;5053052;28;19909;-60
2023/08/22 09:49:15;;;;;;;9.90;4.57;;;25.20;99.90;;;;;;5052643;28;20064;-60
2023/08/22 09:51:43;;;;;;;8.77;4.10;;;25.40;99.90;;;;;;5052649;28;20597;-60
2023/08/22 09:54:09;;;;;;;6.80;2.67;;;25.40;99.90;;;;;;5052604;28;20363;-60
2023/08/22 09:56:37;;;;;;;5.93;2.95;;;25.30;99.90;;;;;;5052747;28;20032;-60
2023/08/22 09:59:03;;;;;;;6.78;2.97;;;25.30;99.90;;;;;;5052487;28;20045;-60
2023/08/22 10:01:30;;;;;;;6.78;2.75;;;25.30;99.90;;;;;;5052487;28;20041;-59
2023/08/22 10:03:56;;;;;;;6.22;2.97;;;25.30;99.90;;;;;;5052556;28;20067;-59
2023/08/22 10:06:28;;;;;;;8.23;2.90;;;25.40;99.90;;;;;;5052258;28;20037;-59
2023/08/22 10:08:54;;;;;;;7.43;2.55;;;25.50;99.90;;;;;;5052270;28;20039;-59
2023/08/22 10:11:21;;;;;;;3.15;1.50;;;25.80;99.90;;;;;;5052374;28;20037;-59
2023/08/22 10:13:49;;;;;;;7.47;2.42;;;26.10;99.90;;;;;;5052302;28;20428;-59
2023/08/22 10:16:14;;;;;;;4.40;2.03;;;26.20;99.90;;;;;;5052401;28;20037;-59
2023/08/22 10:18:40;;;;;;;4.88;2.67;;;26.20;99.90;;;;;;5052139;28;20126;-59
2023/08/22 10:21:06;;;;;;;5.93;1.70;;;25.90;99.90;;;;;;5052120;28;20048;-59
2023/08/22 10:23:53;;;;;;;5.57;2.13;;;25.80;99.90;;;;;;5052000;28;20119;-59
2023/08/22 10:26:20;;;;;;;6.57;1.83;;;25.80;99.90;;;;;;5051003;28;20029;-58
2023/08/22 10:29:12;;;;;;;6.00;2.38;;;25.70;99.90;;;;;;5051979;28;20091;-59
2023/08/22 10:32:13;;;;;;;4.63;2.00;;;25.90;99.90;;;;;;5051977;28;20032;-60
2023/08/22 10:34:38;;;;;;;5.30;2.40;;;25.80;99.90;;;;;;5009535;28;20445;-60
2023/08/22 10:37:05;;;;;;;6.70;2.22;;;26.00;99.90;;;;;;5042990;28;20040;-57
2023/08/22 10:39:42;;;;;;;5.93;2.60;;;25.80;99.90;;;;;;5051963;28;20514;-60
2023/08/22 10:42:13;;;;;;;5.28;2.10;;;25.90;99.90;;;;;;5051975;28;20033;-60
2023/08/22 10:44:47;;;;;;;4.40;2.30;;;26.00;99.90;;;;;;5051731;28;20029;-60
2023/08/22 10:47:23;;;;;;;4.82;2.40;;;26.10;99.90;;;;;;5051693;28;20044;-60
2023/08/22 10:49:51;;;;;;;6.15;2.47;;;26.30;99.90;;;;;;5051745;28;20029;-60
2023/08/22 10:52:17;;;;;;;3.63;2.28;;;26.30;99.90;;;;;;5051329;28;20116;-60
2023/08/22 10:55:03;;;;;;;4.40;2.28;;;26.20;99.90;;;;;;5051979;28;20032;-58
2023/08/22 10:57:38;;;;;;;5.68;2.00;;;26.00;99.90;;;;;;5051509;28;20118;-60
2023/08/22 11:00:15;;;;;;;4.90;2.30;;;25.80;99.90;;;;;;5051656;28;20079;-59
2023/08/22 11:02:42;;;;;;;4.25;1.90;;;25.80;99.90;;;;;;5051127;28;20045;-60
2023/08/22 11:05:11;;;;;;;6.30;1.90;;;25.60;99.90;;;;;;5051542;28;20029;-60
2023/08/22 11:07:39;;;;;;;4.45;2.00;;;25.70;99.90;;;;;;5050971;28;20059;-60
2023/08/22 11:10:06;;;;;;;5.20;3.25;;;25.70;99.90;;;;;;5051650;28;20029;-59
2023/08/22 11:12:32;;;;;;;4.38;2.10;;;25.90;99.90;;;;;;5051058;28;20466;-60
2023/08/22 11:14:58;;;;;;;5.43;2.22;;;26.30;99.90;;;;;;5051358;28;20036;-59
2023/08/22 11:17:24;;;;;;;6.88;2.20;;;26.50;99.90;;;;;;5050504;28;20063;-60
2023/08/22 11:19:52;;;;;;;6.65;3.30;;;26.70;99.90;;;;;;5051196;28;20040;-59
2023/08/22 11:22:18;;;;;;;;;;;26.70;99.80;;;;;;5051602;28;20029;-60
2023/08/22 11:24:45;;;;;;;7.32;2.30;;;26.60;99.90;;;;;;5051187;28;19909;-60
2023/08/22 11:27:13;;;;;;;9.85;4.43;;;26.30;99.90;;;;;;5050986;28;20069;-60
2023/08/22 11:29:52;;;;;;;7.57;2.80;;;26.10;99.90;;;;;;5050880;28;20552;-60
2023/08/22 11:32:22;;;;;;;5.28;2.10;;;26.10;99.90;;;;;;5059913;28;20432;-60
2023/08/22 11:34:56;;;;;;;4.68;2.42;;;26.30;99.90;;;;;;5067351;28;20024;-60
2023/08/22 11:37:22;;;;;;;7.38;3.30;;;26.30;99.90;;;;;;5068307;28;20162;-60
2023/08/22 11:39:52;;;;;;;5.35;2.20;;;26.40;99.70;;;;;;5070819;28;20040;-60
2023/08/22 11:42:19;;;;;;;2.90;1.50;;;26.40;99.40;;;;;;5070398;28;20090;-60
2023/08/22 11:45:13;;;;;;;5.35;1.85;;;26.30;98.10;;;;;;5071170;28;20098;-60
2023/08/22 11:47:50;;;;;;;3.60;2.47;;;26.40;96.90;;;;;;5068276;28;20057;-60
2023/08/22 11:50:29;;;;;;;4.17;1.93;;;26.30;98.90;;;;;;5070845;28;20028;-60
2023/08/22 11:52:56;;;;;;;6.75;2.42;;;26.00;99.90;;;;;;5070537;28;20032;-60
2023/08/22 11:55:26;;;;;;;3.95;2.53;;;26.00;99.90;;;;;;5070977;28;20024;-58
2023/08/22 11:58:00;;;;;;;4.72;2.35;;;25.90;99.90;;;;;;5070648;28;20020;-59
2023/08/22 12:00:27;;;;;;;5.70;2.30;;;26.00;99.90;;;;;;5070675;28;20029;-60
2023/08/22 12:02:54;;;;;;;3.78;2.03;;;25.90;99.70;;;;;;5070316;28;20037;-60
2023/08/22 12:05:37;;;;;;;4.95;2.55;;;25.90;99.90;;;;;;5070520;28;20116;-60
2023/08/22 12:08:05;;;;;;;4.32;2.10;;;25.70;99.90;;;;;;5101389;22;20053;-49
2023/08/22 12:10:38;;;;;;;;;;;25.60;99.90;;;;;;5031435;28;20364;-51
2023/08/22 12:13:04;;;;;;;4.05;2.22;;;25.50;99.90;;;;;;5030617;28;20281;-50
2023/08/22 12:15:29;;;;;;;8.65;2.40;;;25.90;99.90;;;;;;5031167;28;20029;-53
2023/08/22 12:17:57;;;;;;;5.78;2.55;;;26.00;99.80;;;;;;5031035;28;20109;-52
2023/08/22 12:20:23;;;;;;;6.25;2.35;;;26.20;99.90;;;;;;5029255;28;20102;-53
2023/08/22 12:22:49;;;;;;;5.85;2.40;;;26.20;99.00;;;;;;5027579;28;20474;-50
2023/08/22 12:25:14;;;;;;;3.95;2.55;;;26.20;99.90;;;;;;5027303;28;20022;-50
2023/08/22 12:27:40;;;;;;;7.20;2.70;;;26.10;98.60;;;;;;5026772;28;20055;-51
2023/08/22 12:30:06;;;;;;;6.88;2.40;;;26.10;99.50;;;;;;5028448;28;20478;-50
2023/08/22 12:32:33;;;;;;;5.38;2.78;;;26.30;99.60;;;;;;5031057;28;20501;-54
2023/08/22 12:34:59;;;;;;;5.38;2.53;;;26.30;99.90;;;;;;5031095;28;20037;-54
2023/08/22 12:37:25;;;;;;;9.65;5.75;;;26.30;99.90;;;;;;5031361;28;20083;-53
2023/08/22 12:39:50;;;;;;;6.30;3.53;;;26.40;99.90;;;;;;5034749;28;20037;-52
2023/08/22 12:42:17;;;;;;;8.70;4.63;;;26.50;99.50;;;;;;5034262;28;20044;-52
2023/08/22 12:44:43;;;;;;;6.63;3.20;;;26.70;99.50;;;;;;5034516;28;20493;-53
2023/08/22 12:47:09;;;;;;;6.50;2.88;;;26.80;98.80;;;;;;5034283;28;20064;-52
2023/08/22 12:49:34;;;;;;;5.68;2.45;;;26.60;99.10;;;;;;5034166;28;20082;-51